Time;durP1;ratioP1;P1;durP2;ratioP2;P2;SDS_P1;SDS_P2;PMS_P1;PMS_P2;Temp;Humidity;BMP_temperature;BMP_pressure;BME280_temperature;BME280_humidity;BME280_pressure;Samples;Min_cycle;Max_cycle;Signal;HPM_P1;HPM_P2
2022/04/01 00:02:11;;;;;;;;;2.00;1.00;;;;;17.91;25.11;99950.03;5038210;28;46054;-85
2022/04/01 00:04:36;;;;;;;;;0.00;0.00;;;;;17.83;25.22;99936.75;5038305;28;45317;-85
2022/04/01 00:07:02;;;;;;;;;0.00;0.00;;;;;17.80;25.20;99920.72;5038399;28;45235;-85
2022/04/01 00:09:28;;;;;;;;;0.67;0.67;;;;;17.71;24.68;99873.53;5036969;28;45273;-85
2022/04/01 00:11:53;;;;;;;;;1.67;0.00;;;;;18.48;24.56;100011.25;5037539;28;46552;-85
2022/04/01 00:14:18;;;;;;;;;1.00;1.00;;;;;17.22;25.16;99861.31;5038149;28;45314;-85
2022/04/01 00:16:44;;;;;;;;;1.33;0.67;;;;;18.11;25.37;100033.59;5036731;28;45323;-85
2022/04/01 00:19:09;;;;;;;;;1.33;1.00;;;;;17.42;25.00;99888.50;5038111;28;45420;-85
2022/04/01 00:21:35;;;;;;;;;1.00;1.00;;;;;17.80;25.09;99947.56;5038181;28;45401;-85
2022/04/01 00:24:01;;;;;;;;;2.00;0.00;;;;;18.50;24.94;100014.75;5036310;28;45479;-86
2022/04/01 00:26:26;;;;;;;;;0.33;0.00;;;;;18.44;24.82;100033.72;5038101;28;45381;-84
2022/04/01 00:28:51;;;;;;;;;2.00;1.00;;;;;18.46;24.83;100029.19;5037852;28;45508;-85
2022/04/01 00:31:17;;;;;;;;;1.00;0.00;;;;;18.17;24.59;99957.41;5036615;28;47041;-86
2022/04/01 00:33:42;;;;;;;;;3.00;1.00;;;;;18.56;24.37;100023.59;5036551;28;45499;-85
2022/04/01 00:36:07;;;;;;;;;1.00;0.67;;;;;18.32;24.41;99974.94;5036479;28;45416;-85
2022/04/01 00:38:33;;;;;;;;;2.00;1.00;;;;;17.72;24.52;99901.25;5037986;28;45568;-85
2022/04/01 00:40:59;;;;;;;;;5.00;1.00;;;;;18.38;24.59;99998.97;5037079;28;46666;-85
2022/04/01 00:43:30;;;;;;;;;1.33;0.33;;;;;18.17;24.67;99981.56;5037612;28;45460;-85
2022/04/01 00:45:57;;;;;;;;;1.00;1.00;;;;;17.84;24.35;99899.13;5037278;28;45436;-85
2022/04/01 00:48:22;;;;;;;;;0.00;0.00;;;;;18.16;24.45;99951.16;5037859;28;45517;-85
2022/04/01 00:50:48;;;;;;;;;0.00;0.00;;;;;17.29;25.31;99849.53;5036945;28;45514;-85
2022/04/01 00:53:36;;;;;;;;;1.33;0.00;;;;;18.37;24.69;100007.94;5037693;28;45379;-85
2022/04/01 00:56:02;;;;;;;;;0.00;0.00;;;;;17.93;24.94;99954.44;5037111;28;45326;-85
2022/04/01 00:58:28;;;;;;;;;1.00;0.00;;;;;17.56;25.13;99915.03;5037734;28;45387;-85
2022/04/01 01:00:53;;;;;;;;;0.00;0.00;;;;;16.99;25.38;99801.06;5037088;28;45432;-84
2022/04/01 01:03:20;;;;;;;;;2.33;0.00;;;;;17.31;24.98;99796.72;5037489;28;45345;-84
2022/04/01 01:05:46;;;;;;;;;0.00;0.00;;;;;18.16;24.74;99929.69;5035924;28;45513;-84
2022/04/01 01:08:13;;;;;;;;;1.00;0.00;;;;;18.42;24.66;99956.78;5035871;28;45290;-84
2022/04/01 01:10:38;;;;;;;;;0.00;0.00;;;;;17.38;24.73;99801.03;5036854;28;46113;-84
2022/04/01 01:13:04;;;;;;;;;0.00;0.00;;;;;18.47;24.51;99961.13;5036992;28;48255;-84
2022/04/01 01:15:29;;;;;;;;;0.00;0.00;;;;;18.11;24.54;99938.78;5036243;28;45388;-85
2022/04/01 01:17:54;;;;;;;;;0.00;0.00;;;;;17.82;24.73;99851.81;5035994;28;45447;-85
2022/04/01 01:20:20;;;;;;;;;1.00;0.00;;;;;18.01;24.34;99854.94;5037199;28;45614;-85
2022/04/01 01:22:47;;;;;;;;;0.00;0.00;;;;;18.28;24.83;99954.47;5037011;28;45523;-85
2022/04/01 01:25:13;;;;;;;;;0.67;0.67;;;;;18.40;24.27;99926.44;5035391;28;45612;-85
2022/04/01 01:27:40;;;;;;;;;0.67;0.67;;;;;18.55;24.33;99968.09;5035796;28;45262;-84
2022/04/01 01:30:07;;;;;;;;;2.00;1.00;;;;;18.57;24.40;99953.69;5036733;28;45698;-85
2022/04/01 01:32:34;;;;;;;;;1.00;1.00;;;;;18.16;24.80;99830.38;5035540;28;45616;-84
2022/04/01 01:35:01;;;;;;;;;0.00;0.00;;;;;18.58;24.22;99898.16;5035570;28;45474;-84
2022/04/01 01:37:26;;;;;;;;;0.00;0.00;;;;;18.07;24.24;99829.72;5068823;28;45313;-83
2022/04/01 01:39:52;;;;;;;;;1.00;0.33;;;;;17.98;24.90;99831.72;5035318;28;47185;-84
2022/04/01 01:42:18;;;;;;;;;1.00;0.00;;;;;18.62;24.59;99932.97;5040274;28;45342;-86
2022/04/01 01:44:44;;;;;;;;;1.00;0.00;;;;;18.11;24.79;99834.09;5055759;28;45251;-85
2022/04/01 01:47:09;;;;;;;;;0.00;0.00;;;;;17.48;24.90;99756.09;5056794;28;45604;-85
2022/04/01 01:49:34;;;;;;;;;1.00;1.00;;;;;18.54;25.14;99909.91;5057402;28;45567;-86
2022/04/01 01:55:35;;;;;;;;;3.67;0.67;;;;;17.24;26.34;99765.63;5056394;28;45427;-86
2022/04/01 01:58:01;;;;;;;;;3.00;1.00;;;;;18.16;26.38;99908.22;5056660;28;45418;-86
2022/04/01 02:00:27;;;;;;;;;0.00;0.00;;;;;16.51;25.83;99621.78;5056622;28;45340;-86
2022/04/01 02:02:53;;;;;;;;;1.33;1.00;;;;;18.12;26.39;99823.31;5055428;28;45313;-86
2022/04/01 02:05:18;;;;;;;;;0.00;0.00;;;;;17.86;25.94;99751.56;5056755;28;45496;-84
2022/04/01 02:07:47;;;;;;;;;1.00;0.00;;;;;18.27;25.86;99872.16;5056149;28;45511;-83
2022/04/01 02:10:15;;;;;;;;;1.00;1.00;;;;;17.08;26.48;99655.25;5056010;28;46208;-83
2022/04/01 02:12:43;;;;;;;;;1.00;0.00;;;;;17.60;25.96;99720.91;5056235;28;45418;-83
2022/04/01 02:15:10;;;;;;;;;0.00;0.00;;;;;17.28;26.42;99741.41;5056065;28;45364;-83
2022/04/01 02:17:37;;;;;;;;;2.00;0.00;;;;;17.80;26.80;99830.38;5056323;28;45446;-83
2022/04/01 02:20:05;;;;;;;;;1.00;0.00;;;;;17.95;26.36;99847.06;5055893;28;45361;-83
2022/04/01 02:22:31;;;;;;;;;1.00;0.00;;;;;17.57;26.75;99805.97;5054410;28;45853;-83
2022/04/01 02:24:57;;;;;;;;;1.33;1.00;;;;;17.58;26.58;99796.97;5054963;28;45313;-83
2022/04/01 02:27:24;;;;;;;;;0.33;0.33;;;;;17.47;26.67;99790.09;5056154;28;45345;-83
2022/04/01 02:29:50;;;;;;;;;1.00;1.00;;;;;17.10;26.83;99690.94;5056247;28;46527;-83
2022/04/01 02:32:16;;;;;;;;;0.67;0.00;;;;;17.91;26.61;99869.53;5056022;28;45495;-83
2022/04/01 02:34:42;;;;;;;;;0.00;0.00;;;;;18.13;26.53;99854.63;5056347;28;45282;-82
2022/04/01 02:37:07;;;;;;;;;0.00;0.00;;;;;16.60;27.39;99618.91;5054070;28;45295;-83
2022/04/01 02:39:33;;;;;;;;;3.00;1.00;;;;;17.32;26.83;99696.63;5056123;28;45341;-83
2022/04/01 02:41:58;;;;;;;;;1.00;1.00;;;;;17.39;27.04;99761.72;5055740;28;45411;-82
2022/04/01 02:44:23;;;;;;;;;2.00;2.00;;;;;18.12;27.47;99847.47;5054660;28;45432;-83
2022/04/01 02:46:49;;;;;;;;;5.67;4.33;;;;;17.81;27.54;99769.56;5055657;28;45503;-83
2022/04/01 02:49:17;;;;;;;;;5.67;3.00;;;;;17.83;27.82;99781.13;5055512;28;46670;-83
2022/04/01 02:51:45;;;;;;;;;3.00;3.00;;;;;18.26;27.75;99860.53;5055704;28;45371;-83
2022/04/01 02:54:11;;;;;;;;;5.00;2.00;;;;;17.69;27.48;99761.84;5055705;28;45630;-83
2022/04/01 02:56:38;;;;;;;;;10.00;2.00;;;;;17.64;27.82;99786.09;5055618;28;45359;-82
2022/04/01 02:59:08;;;;;;;;;2.67;1.67;;;;;17.87;28.30;99840.97;5055340;28;45442;-83
2022/04/01 03:01:38;;;;;;;;;3.00;2.00;;;;;17.72;28.71;99826.13;5055519;28;45503;-83
2022/04/01 03:04:11;;;;;;;;;3.00;2.00;;;;;17.51;29.50;99843.63;5055343;28;45222;-82
2022/04/01 03:06:38;;;;;;;;;1.67;1.00;;;;;17.54;28.93;99830.16;5055319;28;45419;-82
2022/04/01 03:09:04;;;;;;;;;1.00;1.00;;;;;17.39;28.33;99775.97;5054093;28;47331;-82
2022/04/01 03:11:30;;;;;;;;;1.00;1.00;;;;;18.08;28.67;99863.72;5055541;28;45460;-83
2022/04/01 03:13:57;;;;;;;;;1.00;1.00;;;;;17.30;29.03;99754.78;5055600;28;45476;-83
2022/04/01 03:16:22;;;;;;;;;3.00;3.00;;;;;17.55;29.10;99776.50;5055302;28;45546;-83
2022/04/01 03:18:48;;;;;;;;;5.33;5.33;;;;;17.75;29.46;99853.78;5055354;28;45460;-83
2022/04/01 03:21:14;;;;;;;;;3.00;2.00;;;;;17.48;28.98;99789.16;5054888;28;45419;-82
2022/04/01 03:23:41;;;;;;;;;5.00;5.00;;;;;17.35;28.85;99768.94;5055418;28;45539;-81
2022/04/01 03:26:07;;;;;;;;;3.67;3.67;;;;;17.66;29.57;99827.16;5055508;28;45329;-82
2022/04/01 03:28:34;;;;;;;;;5.00;5.00;;;;;17.59;29.48;99825.56;5055167;28;45424;-83
2022/04/01 03:31:00;;;;;;;;;5.67;3.67;;;;;17.79;28.96;99817.91;5054879;28;45316;-83
2022/04/01 03:33:26;;;;;;;;;4.33;4.33;;;;;16.89;29.30;99733.41;5055253;28;45615;-83
2022/04/01 03:35:52;;;;;;;;;3.00;3.00;;;;;17.66;29.61;99833.44;5055286;28;45646;-83
2022/04/01 03:38:17;;;;;;;;;5.33;5.33;;;;;18.00;28.97;99826.31;5055059;28;46219;-83
2022/04/01 03:40:47;;;;;;;;;6.00;5.00;;;;;18.12;28.74;99783.06;5055001;28;45443;-83
2022/04/01 03:43:48;;;;;;;;;6.00;5.00;;;;;18.17;28.36;99812.44;5055231;28;45584;-83
2022/04/01 03:46:15;;;;;;;;;5.00;5.00;;;;;18.03;28.36;99761.84;5054949;28;45395;-83
2022/04/01 03:49:08;;;;;;;;;3.00;3.00;;;;;18.29;28.73;99811.25;5054658;28;46123;-83
2022/04/01 03:51:38;;;;;;;;;2.00;2.00;;;;;18.40;28.20;99819.00;5052933;28;45447;-83
2022/04/01 03:54:05;;;;;;;;;3.00;2.00;;;;;18.07;28.51;99774.28;5055078;28;45281;-83
2022/04/01 03:56:36;;;;;;;;;2.00;2.00;;;;;18.45;28.13;99798.25;5054867;28;45606;-83
2022/04/01 03:59:04;;;;;;;;;0.00;0.00;;;;;18.27;27.78;99816.66;5052780;28;46320;-83
2022/04/01 04:01:30;;;;;;;;;2.00;1.00;;;;;17.54;28.42;99731.81;5053563;28;45351;-83
2022/04/01 04:03:56;;;;;;;;;1.00;1.00;;;;;18.17;28.31;99821.41;5054790;28;45504;-83
2022/04/01 04:06:23;;;;;;;;;0.00;0.00;;;;;17.30;28.71;99695.81;5054897;28;45407;-83
2022/04/01 04:08:50;;;;;;;;;1.00;1.00;;;;;18.11;28.27;99813.50;5054416;28;46350;-83
2022/04/01 04:11:18;;;;;;;;;2.00;1.00;;;;;17.79;28.39;99737.41;5054867;28;45451;-86
2022/04/01 04:13:45;;;;;;;;;0.33;0.33;;;;;17.71;27.94;99719.78;5055106;28;45270;-85
2022/04/01 04:16:19;;;;;;;;;1.00;1.00;;;;;18.33;27.89;99786.06;5054789;28;45381;-83
2022/04/01 04:18:49;;;;;;;;;1.00;1.00;;;;;18.17;28.00;99807.06;5066479;28;46186;-80
2022/04/01 04:21:21;;;;;;;;;1.00;1.00;;;;;18.36;27.71;99833.44;5049046;28;45411;-81
2022/04/01 04:23:50;;;;;;;;;1.67;1.67;;;;;17.82;28.40;99740.00;5057307;28;45513;-81
2022/04/01 04:26:24;;;;;;;;;3.00;1.67;;;;;18.22;27.81;99782.81;5054314;28;45504;-80
2022/04/01 04:28:59;;;;;;;;;1.00;1.00;;;;;18.12;27.79;99772.31;5045398;28;45382;-80
2022/04/01 04:31:28;;;;;;;;;1.33;1.33;;;;;18.57;27.53;99799.72;5045025;28;45542;-81
2022/04/01 04:33:55;;;;;;;;;3.00;1.33;;;;;18.71;27.51;99802.88;5051614;28;45307;-82
2022/04/01 04:36:43;;;;;;;;;2.00;1.00;;;;;18.25;28.17;99798.81;5058259;28;45541;-81
2022/04/01 04:39:29;;;;;;;;;2.00;1.00;;;;;18.59;27.73;99813.97;5057478;27;45447;-80
2022/04/01 04:41:55;;;;;;;;;1.33;1.33;;;;;18.15;27.88;99796.38;5049098;28;45437;-80
2022/04/01 04:44:25;;;;;;;;;2.00;1.00;;;;;18.00;28.16;99794.13;5049266;28;45429;-80
2022/04/01 04:46:52;;;;;;;;;1.33;1.00;;;;;18.23;27.66;99827.53;5057281;28;45295;-81
2022/04/01 04:49:18;;;;;;;;;1.00;1.00;;;;;18.15;28.00;99782.97;5057207;28;45534;-81
2022/04/01 04:51:46;;;;;;;;;1.00;1.00;;;;;18.21;28.01;99821.31;5057301;28;45336;-81
2022/04/01 04:54:13;;;;;;;;;1.00;1.00;;;;;18.11;27.65;99781.28;5057275;28;45322;-80
2022/04/01 04:56:39;;;;;;;;;2.00;2.00;;;;;18.47;27.72;99813.41;5058477;28;45313;-81
2022/04/01 04:59:06;;;;;;;;;2.00;2.00;;;;;18.30;27.37;99781.66;5057544;27;45744;-80
2022/04/01 05:02:04;;;;;;;;;2.00;2.00;;;;;18.49;27.24;99819.63;5054056;28;45534;-80
2022/04/01 05:04:48;;;;;;;;;2.33;2.00;;;;;18.46;27.46;99829.56;5061471;28;45461;-81
2022/04/01 05:07:33;;;;;;;;;2.33;2.33;;;;;18.57;27.43;99834.63;5063493;28;45442;-81
2022/04/01 05:10:08;;;;;;;;;2.33;2.33;;;;;18.31;27.46;99844.28;5057157;28;45828;-80
2022/04/01 05:12:42;;;;;;;;;3.00;3.00;;;;;18.04;27.59;99814.59;5057013;28;45418;-81
2022/04/01 05:15:09;;;;;;;;;3.00;3.00;;;;;18.03;27.62;99822.69;5056809;28;45833;-81
2022/04/01 05:17:37;;;;;;;;;4.33;4.33;;;;;17.88;27.49;99786.38;5057152;28;45426;-81
2022/04/01 05:20:17;;;;;;;;;6.00;5.00;;;;;18.21;27.37;99850.84;5056799;28;45410;-80
2022/04/01 05:22:55;;;;;;;;;2.00;2.00;;;;;18.06;27.55;99842.28;5069220;28;45452;-80
2022/04/01 05:25:24;;;;;;;;;3.00;3.00;;;;;18.03;27.39;99842.38;5060740;28;45507;-81
2022/04/01 05:27:53;;;;;;;;;3.00;3.00;;;;;17.86;27.67;99807.91;5076515;27;45292;-80
2022/04/01 05:30:21;;;;;;;;;2.00;2.00;;;;;17.92;27.30;99876.66;5066526;27;46612;-80
2022/04/01 05:33:08;;;;;;;;;2.00;0.67;;;;;17.90;27.78;99863.22;5076915;27;45371;-80
2022/04/01 05:35:40;;;;;;;;;3.67;3.67;;;;;18.00;27.38;99870.16;5077218;27;45480;-81
2022/04/01 05:38:09;;;;;;;;;3.00;3.00;;;;;18.18;27.41;99851.81;5073600;27;45542;-80
2022/04/01 05:40:36;;;;;;;;;5.00;2.67;;;;;18.14;27.62;99845.66;5071719;27;45323;-81
2022/04/01 05:43:02;;;;;;;;;3.00;3.00;;;;;18.54;27.43;99869.63;5054663;27;45258;-80
2022/04/01 05:45:29;;;;;;;;;3.00;3.00;;;;;18.31;27.60;99849.66;5048743;28;45444;-80
2022/04/01 05:47:56;;;;;;;;;2.00;2.00;;;;;17.94;27.88;99779.06;5044896;28;45472;-80
2022/04/01 05:50:22;;;;;;;;;3.67;3.67;;;;;18.17;28.10;99839.28;5051881;28;45640;-80
2022/04/01 05:52:49;;;;;;;;;4.33;4.33;;;;;18.33;28.07;99874.69;5037241;28;45457;-79
2022/04/01 05:55:16;;;;;;;;;3.00;3.00;;;;;17.51;28.75;99782.84;5080122;27;45266;-80
2022/04/01 05:57:42;;;;;;;;;2.33;2.33;;;;;17.35;28.55;99747.47;5044760;28;45541;-80
2022/04/01 06:00:12;;;;;;;;;2.00;2.00;;;;;18.03;28.69;99879.94;5044886;28;47081;-80
2022/04/01 06:02:49;;;;;;;;;4.33;3.00;;;;;18.06;28.19;99901.34;5054857;28;45353;-80
2022/04/01 06:05:35;;;;;;;;;3.00;3.00;;;;;18.08;29.28;99891.44;5073986;27;45263;-80
2022/04/01 06:08:30;;;;;;;;;3.00;2.00;;;;;17.99;28.61;99852.28;5034365;28;45606;-80
2022/04/01 06:11:04;;;;;;;;;3.00;3.00;;;;;18.46;28.73;99902.06;5029275;28;46479;-80
2022/04/01 06:13:54;;;;;;;;;5.00;5.00;;;;;18.24;28.70;99912.50;5032127;28;45368;-79
2022/04/01 06:16:39;;;;;;;;;6.00;6.00;;;;;18.29;28.36;99906.09;5034326;28;45530;-78
2022/04/01 06:19:18;;;;;;;;;3.00;3.00;;;;;18.10;28.75;99908.38;5039581;28;45733;-78
2022/04/01 06:21:49;;;;;;;;;5.00;5.00;;;;;17.88;29.26;99901.78;5050032;28;46536;-77
2022/04/01 06:24:32;;;;;;;;;4.33;4.33;;;;;17.52;29.81;99901.72;5036275;28;45464;-79
2022/04/01 06:27:03;;;;;;;;;5.00;3.67;;;;;17.90;29.47;99916.88;5039926;28;45510;-78
2022/04/01 06:30:03;;;;;;;;;5.67;5.33;;;;;17.69;29.16;99878.06;5034087;28;45385;-78
2022/04/01 06:32:31;;;;;;;;;6.00;6.00;;;;;17.91;29.43;99917.81;5033241;28;45699;-79
2022/04/01 06:35:08;;;;;;;;;6.00;5.33;;;;;17.77;29.43;99929.72;5033054;28;45388;-78
2022/04/01 06:37:41;;;;;;;;;5.67;5.67;;;;;17.88;29.46;99923.25;5032471;28;45665;-79
2022/04/01 06:40:10;;;;;;;;;6.33;6.00;;;;;17.48;29.81;99922.34;5030365;28;45429;-79
2022/04/01 06:42:37;;;;;;;;;6.33;6.33;;;;;17.55;29.53;99899.88;5032694;28;46470;-80
2022/04/01 06:45:05;;;;;;;;;6.67;5.67;;;;;17.60;29.73;99883.66;5043088;28;45487;-80
2022/04/01 06:47:31;;;;;;;;;4.33;4.33;;;;;17.28;29.44;99883.50;5058117;28;45429;-79
2022/04/01 06:49:57;;;;;;;;;5.33;3.67;;;;;17.84;29.64;99936.69;5069865;27;45400;-78
2022/04/01 06:52:26;;;;;;;;;10.33;7.00;;;;;17.86;29.74;99930.41;5067114;27;45885;-79
2022/04/01 06:54:52;;;;;;;;;3.00;2.00;;;;;17.55;29.30;99865.00;5054961;28;45580;-79
2022/04/01 06:57:17;;;;;;;;;7.67;6.00;;;;;17.96;29.58;99945.41;5034900;28;45298;-78
2022/04/01 06:59:43;;;;;;;;;8.67;7.00;;;;;18.02;29.79;99931.84;5034677;28;45622;-79
2022/04/01 07:02:08;;;;;;;;;7.00;6.00;;;;;17.66;29.18;99883.50;5049499;28;46549;-78
2022/04/01 07:04:34;;;;;;;;;8.67;7.67;;;;;17.69;29.49;99934.38;5056514;28;45402;-78
2022/04/01 07:06:59;;;;;;;;;9.33;7.33;;;;;17.69;29.68;99907.56;5073186;27;45465;-77
2022/04/01 07:09:26;;;;;;;;;9.33;8.00;;;;;17.79;29.72;99941.31;5074075;28;45395;-78
2022/04/01 07:11:52;;;;;;;;;10.00;7.00;;;;;17.77;29.64;99929.72;5071695;27;45515;-77
2022/04/01 07:14:17;;;;;;;;;5.33;5.33;;;;;17.32;30.19;99905.75;5055371;28;45259;-78
2022/04/01 07:16:43;;;;;;;;;7.00;7.00;;;;;17.83;29.52;99952.84;5055083;28;45660;-78
2022/04/01 07:19:08;;;;;;;;;10.00;8.00;;;;;17.51;29.94;99921.41;5055381;28;45375;-76
2022/04/01 07:21:34;;;;;;;;;8.00;7.00;;;;;17.51;29.60;99932.13;5060271;28;45817;-77
2022/04/01 07:24:01;;;;;;;;;8.33;8.33;;;;;17.52;29.99;99931.22;5060508;27;45395;-78
2022/04/01 07:26:26;;;;;;;;;10.00;8.67;;;;;17.25;30.09;99938.97;5055206;28;45590;-77
2022/04/01 07:28:54;;;;;;;;;8.33;8.00;;;;;17.42;30.63;99963.59;5058297;28;45435;-79
2022/04/01 07:34:04;;;;;;;;;12.00;10.00;;;;;17.40;29.87;99929.72;5052886;28;45401;-78
2022/04/01 07:36:29;;;;;;;;;12.67;12.67;;;;;17.63;30.23;99972.97;5055218;27;45631;-78
2022/04/01 07:38:55;;;;;;;;;15.33;10.33;;;;;17.51;30.09;99975.94;5042169;28;45411;-79
2022/04/01 07:41:20;;;;;;;;;9.33;7.00;;;;;17.32;30.78;99983.50;5047685;28;45495;-79
2022/04/01 07:43:45;;;;;;;;;15.00;11.67;;;;;17.46;34.96;99991.25;5047036;28;45423;-79
2022/04/01 07:46:11;;;;;;;;;13.00;12.00;;;;;16.67;31.27;99874.06;5079934;27;45434;-79
2022/04/01 07:48:37;;;;;;;;;13.33;11.33;;;;;16.72;31.50;99881.09;5041427;28;45467;-80
2022/04/01 07:51:03;;;;;;;;;10.00;10.00;;;;;17.45;31.12;99990.38;5054987;28;46366;-78
2022/04/01 07:53:28;;;;;;;;;11.00;9.33;;;;;17.51;30.31;99991.13;5051796;28;45341;-79
2022/04/01 07:55:54;;;;;;;;;12.00;11.00;;;;;17.03;30.34;99943.88;5052650;28;45393;-81
2022/04/01 07:58:19;;;;;;;;;12.67;11.67;;;;;17.25;30.35;100008.66;5051928;28;45396;-84
2022/04/01 08:00:45;;;;;;;;;8.67;8.67;;;;;17.25;30.72;100003.31;5049721;28;47379;-81
2022/04/01 08:03:11;;;;;;;;;10.00;10.00;;;;;17.21;30.57;100012.31;5043293;28;45409;-81
2022/04/01 08:05:37;;;;;;;;;10.67;8.00;;;;;16.81;30.86;99960.38;5047075;28;45437;-82
2022/04/01 08:08:03;;;;;;;;;12.00;11.00;;;;;17.13;30.82;100020.53;5048779;28;45624;-77
2022/04/01 08:10:28;;;;;;;;;10.33;10.33;;;;;17.03;30.85;100003.75;5040866;28;46043;-79
2022/04/01 08:12:53;;;;;;;;;11.67;11.33;;;;;17.29;30.86;100026.44;5051326;28;45421;-80
2022/04/01 08:15:19;;;;;;;;;6.00;6.00;;;;;17.25;30.49;100004.16;5056698;28;45484;-78
2022/04/01 08:17:44;;;;;;;;;11.00;11.00;;;;;17.36;30.58;100001.28;5053113;28;45553;-78
2022/04/01 08:20:12;;;;;;;;;10.00;9.33;;;;;17.41;30.42;100004.75;5060656;28;46031;-78
2022/04/01 08:22:38;;;;;;;;;11.00;10.67;;;;;17.83;30.23;100039.59;5054243;28;45304;-77
2022/04/01 08:25:05;;;;;;;;;11.00;10.33;;;;;17.55;29.98;100003.56;5051532;28;45566;-76
2022/04/01 08:27:30;;;;;;;;;12.00;11.00;;;;;17.67;30.42;100027.44;5052251;28;45356;-76
2022/04/01 08:29:59;;;;;;;;;10.33;9.67;;;;;17.68;29.82;100018.47;5049274;28;45435;-76
2022/04/01 08:32:26;;;;;;;;;12.67;12.67;;;;;17.49;30.36;100029.63;5046089;28;45654;-77
2022/04/01 08:34:52;;;;;;;;;15.00;14.00;;;;;17.64;30.22;100054.34;5046708;28;45653;-77
2022/04/01 08:37:18;;;;;;;;;10.00;10.00;;;;;17.78;30.31;100062.97;5047985;28;47155;-77
2022/04/01 08:39:45;;;;;;;;;12.33;11.33;;;;;17.61;30.31;100046.38;5049156;28;45465;-78
2022/04/01 08:42:11;;;;;;;;;15.00;15.00;;;;;17.60;30.37;100069.59;5058126;28;45267;-78
2022/04/01 08:44:41;;;;;;;;;14.67;12.00;;;;;18.01;32.46;100045.50;5046816;28;45327;-77
2022/04/01 08:47:07;;;;;;;;;16.67;14.67;;;;;17.64;29.92;100036.44;5048049;28;45694;-77
2022/04/01 08:49:33;;;;;;;;;15.33;14.00;;;;;17.98;29.75;100089.38;5045854;28;45364;-77
2022/04/01 08:51:58;;;;;;;;;13.33;12.00;;;;;17.70;29.74;100064.91;5064077;28;45961;-77
2022/04/01 08:54:23;;;;;;;;;13.33;13.33;;;;;17.74;30.37;100100.63;5052672;28;45378;-78
2022/04/01 08:56:49;;;;;;;;;17.00;13.67;;;;;17.06;30.10;99939.34;5046055;28;52834;-77
2022/04/01 08:59:14;;;;;;;;;14.33;13.67;;;;;17.80;29.95;100098.69;5047695;28;45650;-78
2022/04/01 09:01:43;;;;;;;;;12.00;12.00;;;;;18.00;30.02;100100.06;5052695;28;45404;-77
2022/04/01 09:04:17;;;;;;;;;11.33;11.33;;;;;17.90;29.69;100060.94;5050364;28;45506;-77
2022/04/01 09:06:42;;;;;;;;;18.33;14.67;;;;;17.97;29.58;100089.41;5060632;28;45542;-78
2022/04/01 09:09:24;;;;;;;;;17.33;15.00;;;;;18.10;29.58;100098.97;5041252;28;45318;-78
2022/04/01 09:12:06;;;;;;;;;16.67;14.67;;;;;18.08;29.39;100111.53;5047157;28;45483;-78
2022/04/01 09:14:32;;;;;;;;;16.00;16.00;;;;;15.59;29.72;99735.13;5058647;28;45386;-79
2022/04/01 09:17:00;;;;;;;;;17.33;16.00;;;;;17.32;30.09;100059.44;5073560;27;45353;-80
2022/04/01 09:19:31;;;;;;;;;16.33;15.00;;;;;17.64;30.00;100113.34;5067769;27;46368;-78
2022/04/01 09:21:57;;;;;;;;;20.00;16.67;;;;;17.35;30.22;100096.03;5055833;27;45466;-78
2022/04/01 09:24:22;;;;;;;;;20.67;19.67;;;;;17.66;30.13;100135.66;5052102;28;45827;-78
2022/04/01 09:26:54;;;;;;;;;21.33;19.67;;;;;17.68;30.58;100136.53;5048913;28;45281;-78
2022/04/01 09:29:23;;;;;;;;;16.67;16.67;;;;;17.92;30.25;100139.66;5048035;28;46347;-78
2022/04/01 09:31:53;;;;;;;;;17.33;17.00;;;;;17.31;30.26;100056.78;5044161;28;45436;-78
2022/04/01 09:34:18;;;;;;;;;19.33;16.33;;;;;17.43;30.03;100075.31;5046451;28;45496;-78
2022/04/01 09:36:44;;;;;;;;;17.33;16.00;;;;;17.81;29.56;100100.44;5052963;28;45340;-78
2022/04/01 09:39:16;;;;;;;;;15.33;14.00;;;;;17.11;29.87;100038.41;5051143;28;46321;-82
2022/04/01 09:41:47;;;;;;;;;17.33;17.33;;;;;16.53;30.23;99922.53;5047284;28;45938;-78
2022/04/01 09:44:43;;;;;;;;;16.33;16.33;;;;;17.99;29.70;100152.00;5049905;28;45410;-78
2022/04/01 09:47:08;;;;;;;;;17.33;14.67;;;;;17.36;29.45;100049.53;5044024;27;45700;-78
2022/04/01 09:49:42;;;;;;;;;21.00;17.00;;;;;18.14;29.57;100154.38;5055467;28;46288;-79
2022/04/01 09:52:13;;;;;;;;;18.00;18.00;;;;;18.26;29.43;100168.44;5055719;28;45333;-78
2022/04/01 09:54:49;;;;;;;;;16.67;16.67;;;;;17.98;29.20;100166.34;5081548;27;45471;-82
2022/04/01 09:57:16;;;;;;;;;15.67;13.00;;;;;17.94;29.51;100161.94;5045805;28;45487;-78
2022/04/01 09:59:43;;;;;;;;;20.67;18.33;;;;;17.20;29.42;100048.97;5057702;28;45432;-78
2022/04/01 10:02:08;;;;;;;;;17.33;14.67;;;;;17.56;29.28;100109.94;5058247;27;45516;-80
2022/04/01 10:04:33;;;;;;;;;13.67;13.33;;;;;18.07;29.27;100170.63;5047929;28;45436;-81
2022/04/01 10:07:01;;;;;;;;;13.00;13.00;;;;;17.67;29.09;100134.75;5057176;28;45388;-80
2022/04/01 10:09:28;;;;;;;;;15.33;11.33;;;;;17.82;29.36;100144.28;5054148;28;45349;-80
2022/04/01 10:11:57;;;;;;;;;15.33;12.33;;;;;17.69;29.34;100157.03;5041785;28;45539;-80
2022/04/01 10:14:26;;;;;;;;;14.33;14.33;;;;;17.61;29.51;100142.94;5040182;28;45343;-80
2022/04/01 10:16:54;;;;;;;;;20.00;15.67;;;;;17.52;29.23;100082.28;5064649;28;45492;-78
2022/04/01 10:19:29;;;;;;;;;19.33;15.67;;;;;18.37;29.21;100186.97;5052029;28;46555;-77
2022/04/01 10:21:55;;;;;;;;;17.67;16.00;;;;;18.39;29.12;100185.16;5040565;28;45511;-78
2022/04/01 10:24:40;;;;;;;;;11.00;10.67;;;;;18.58;28.86;100182.91;5044868;28;45400;-78
2022/04/01 10:27:33;;;;;;;;;17.00;17.00;;;;;18.59;29.08;100176.63;5047337;28;45326;-78
2022/04/01 10:29:59;;;;;;;;;15.00;14.00;;;;;18.49;28.49;100195.66;5066633;28;45463;-78
2022/04/01 10:32:28;;;;;;;;;13.00;13.00;;;;;18.47;28.82;100197.50;5054758;28;45767;-78
2022/04/01 10:34:59;;;;;;;;;16.00;11.67;;;;;18.48;28.57;100150.91;5043546;28;45437;-76
2022/04/01 10:37:28;;;;;;;;;18.33;18.33;;;;;18.81;28.26;100196.69;5044669;28;45866;-75
2022/04/01 10:39:57;;;;;;;;;10.00;10.00;;;;;18.59;28.52;100163.19;5046014;28;45630;-77
2022/04/01 10:42:31;;;;;;;;;22.67;15.67;;;;;18.62;28.64;100173.88;5049481;28;45465;-77
2022/04/01 10:45:00;;;;;;;;;13.33;13.00;;;;;18.46;28.22;100182.28;5050468;28;45393;-78
2022/04/01 10:53:46;;;;;;;;;15.67;14.67;;;;;18.46;28.86;100216.31;5050406;28;45431;-79
2022/04/01 10:56:20;;;;;;;;;14.00;14.00;;;;;18.75;28.26;100234.47;5057140;28;45422;-77
2022/04/01 10:59:03;;;;;;;;;16.00;15.67;;;;;18.60;28.38;100230.31;5043160;28;45314;-76
2022/04/01 11:01:29;;;;;;;;;16.00;15.00;;;;;18.10;27.96;100139.25;5061727;28;46410;-78
2022/04/01 11:04:07;;;;;;;;;15.33;15.33;;;;;18.77;28.47;100234.44;5042203;28;45389;-78
2022/04/01 11:06:32;;;;;;;;;16.67;12.00;;;;;18.38;28.22;100175.31;5048228;28;46552;-78
2022/04/01 11:08:57;;;;;;;;;18.00;17.00;;;;;18.74;28.06;100213.91;5040067;28;45456;-78
2022/04/01 11:11:23;;;;;;;;;14.33;14.33;;;;;18.62;28.17;100232.97;5047944;28;45462;-77
2022/04/01 11:14:05;;;;;;;;;13.33;13.33;;;;;18.48;28.10;100235.97;5057701;28;45430;-76
2022/04/01 11:16:52;;;;;;;;;14.00;14.00;;;;;18.24;28.06;100215.91;5054365;28;45511;-76
2022/04/01 11:19:25;;;;;;;;;18.67;15.33;;;;;18.50;28.46;100232.34;5039637;28;45521;-76
2022/04/01 11:21:51;;;;;;;;;15.33;15.33;;;;;18.46;28.03;100184.97;5045705;28;45427;-77
2022/04/01 11:24:37;;;;;;;;;15.33;14.00;;;;;18.79;28.10;100252.31;5047508;28;45606;-78
2022/04/01 11:27:07;;;;;;;;;15.67;14.67;;;;;18.70;28.01;100257.88;5045295;28;45529;-77
2022/04/01 11:29:33;;;;;;;;;14.33;13.33;;;;;18.24;27.96;100211.44;5048594;28;45670;-76
2022/04/01 11:32:06;;;;;;;;;12.67;11.33;;;;;18.50;28.17;100258.31;5046594;28;45416;-77
2022/04/01 11:34:32;;;;;;;;;16.00;15.00;;;;;18.13;28.49;100219.72;5049374;27;45500;-76
2022/04/01 11:37:01;;;;;;;;;20.67;15.33;;;;;18.51;28.30;100252.91;5049130;28;45438;-76
2022/04/01 11:39:27;;;;;;;;;17.00;16.00;;;;;18.72;28.47;100276.66;5062491;28;45477;-76
2022/04/01 11:41:54;;;;;;;;;21.00;17.33;;;;;18.74;28.06;100269.44;5053038;28;45418;-76
2022/04/01 11:44:21;;;;;;;;;13.00;12.00;;;;;18.60;28.05;100273.31;5053883;28;45390;-75
2022/04/01 11:46:55;;;;;;;;;15.67;15.67;;;;;18.46;27.96;100270.91;5040430;28;45458;-75